Beckley, WV (25801)

8:03 AM EST on December 05, 2016 (GMT -0500)
Raleigh County Memorial | | Change Station

Elev 2513 ft 37.79 °N, 81.12 °W | Updated 12 minutes ago

Overcast
Overcast
42 °F
Feels Like 37 °F
N
9
Wind Variable Wind from NW

Today
High -- | Low -- °F
--% Chance of Precip.
Yesterday
High -- | Low -- °F
Precip. -- in
Pressure 30.07 in
Visibility 10.0 miles
Clouds Mostly Cloudy 1400 ft
Overcast 1900 ft
Windchill 37 °F
Dew Point 37 °F
Humidity 82%
Rainfall 0.06 in
Snow Depth Not available.
7:25 AM 5:05 PM
Waxing Crescent, 31% visible
METAR KBKW 051251Z AUTO 32008KT 10SM BKN014 OVC019 06/03 A3003 RMK AO2 SLP182 T00560028
Pressure 30.07 in
Visibility 10.0 miles
Clouds Mostly Cloudy 1400 ft
Overcast 1900 ft
Windchill 37 °F
Dew Point 37 °F
Humidity 82%
Rainfall 0.06 in
Snow Depth Not available.
7:25 AM 5:05 PM
Waxing Crescent, 31% visible
METAR KBKW 051251Z AUTO 32008KT 10SM BKN014 OVC019 06/03 A3003 RMK AO2 SLP182 T00560028

10-Day Weather Forecast

Almanac

Astronomy

Dec. 05, 2016 Rise Set
Actual Time
Civil Twilight
Nautical Twilight
Astronomical Twilight
Moon
Length of Visible Light
Length of Day
Tomorrow will be .
, % of the Moon is Illuminated

Today's Extremes

State Highs State Lows

Community

WunderPhotos

Upload Photos

1,955,780 photos uploaded!

WunderBlog® & News

Nearby

Air Quality

  Air Quality AQ Index Pollutant
Not available.

Snow Depth

Station Depth Elevation

Earthquake Activity

City Distance Mag. Time & Date
Minimum magnitude displayed is 2.5.

Coastal Water Temperatures

Place Temperature

Stations

Nearby Weather Stations

Station Location Temp. Windchill Dew Point Humidity Wind Precip. Elev Updated Type
                   

Watches & Warnings

There are currently no watches in effect.